createdAt,value
2023-03-29T00:00:15.776Z,4.25
2023-03-29T00:05:39.054Z,2.67
2023-03-29T00:11:01.140Z,3.10
2023-03-29T00:16:23.126Z,2.20
2023-03-29T00:21:44.898Z,2.60
2023-03-29T00:27:06.998Z,2.40
2023-03-29T00:32:28.993Z,4.07
2023-03-29T00:37:50.986Z,3.35
2023-03-29T00:43:14.733Z,2.88
2023-03-29T00:48:36.542Z,3.80
2023-03-29T00:54:01.651Z,2.60
2023-03-29T00:59:25.734Z,3.15
2023-03-29T01:05:05.860Z,3.17
2023-03-29T01:10:36.135Z,3.33
2023-03-29T01:15:59.058Z,2.10
2023-03-29T01:21:29.225Z,3.92
2023-03-29T01:27:00.514Z,3.83
2023-03-29T01:32:39.253Z,5.87
2023-03-29T01:38:23.376Z,4.57
2023-03-29T01:44:02.119Z,2.78
2023-03-29T01:49:28.793Z,2.63
2023-03-29T01:55:00.908Z,2.47
2023-03-29T02:00:27.422Z,3.57
2023-03-29T02:05:49.360Z,4.00
2023-03-29T02:11:11.242Z,2.07
2023-03-29T02:16:37.576Z,3.72
2023-03-29T02:22:07.092Z,3.00
2023-03-29T02:27:29.891Z,2.65
2023-03-29T02:33:05.022Z,4.10
2023-03-29T02:38:27.927Z,4.00
2023-03-29T02:43:50.640Z,3.27
2023-03-29T02:49:12.912Z,4.77
2023-03-29T02:54:37.871Z,2.40
2023-03-29T03:00:00.968Z,3.85
2023-03-29T03:05:23.811Z,2.50
2023-03-29T03:10:46.699Z,3.30
2023-03-29T03:16:09.354Z,2.80
2023-03-29T03:21:31.107Z,4.27
2023-03-29T03:26:52.875Z,2.17
2023-03-29T03:32:14.623Z,2.73
2023-03-29T03:37:36.301Z,3.30
2023-03-29T03:42:58.222Z,2.17
2023-03-29T03:48:20.332Z,2.70
2023-03-29T03:53:42.287Z,2.92
2023-03-29T03:59:04.674Z,2.80
2023-03-29T04:04:26.706Z,3.27
2023-03-29T04:09:48.792Z,3.08
2023-03-29T04:15:11.983Z,3.55
2023-03-29T04:20:34.075Z,3.00
2023-03-29T04:25:59.313Z,2.67
2023-03-29T04:31:21.078Z,3.10
2023-03-29T04:36:43.714Z,4.57
2023-03-29T04:42:05.906Z,4.40
2023-03-29T04:47:31.229Z,6.47
2023-03-29T04:52:52.950Z,3.22
2023-03-29T04:58:15.005Z,8.20
2023-03-29T05:03:36.688Z,6.18
2023-03-29T05:08:58.373Z,5.72
2023-03-29T05:14:20.565Z,6.00
2023-03-29T05:19:43.599Z,5.20
2023-03-29T05:25:05.978Z,5.90
2023-03-29T05:30:27.725Z,3.78
2023-03-29T05:35:49.441Z,5.43
2023-03-29T05:41:11.372Z,7.28
2023-03-29T05:46:33.108Z,6.97
2023-03-29T05:51:56.845Z,8.55
2023-03-29T05:57:18.787Z,7.40
2023-03-29T06:02:41.843Z,4.15
2023-03-29T06:08:03.701Z,8.15
2023-03-29T06:13:26.156Z,12.48
2023-03-29T06:18:47.904Z,7.30
2023-03-29T06:24:09.639Z,7.20
2023-03-29T06:29:31.584Z,7.65
2023-03-29T06:34:54.320Z,7.53
2023-03-29T06:40:21.190Z,6.60
2023-03-29T06:45:43.621Z,3.17
2023-03-29T06:51:07.507Z,6.88
2023-03-29T06:56:29.840Z,12.35
2023-03-29T07:01:53.875Z,7.32
2023-03-29T07:07:22.142Z,8.60
2023-03-29T07:12:46.116Z,13.35
2023-03-29T07:18:12.579Z,9.90
2023-03-29T07:23:34.793Z,8.98
2023-03-29T07:28:56.500Z,11.50
2023-03-29T07:34:18.240Z,6.63
2023-03-29T07:39:40.290Z,7.05
2023-03-29T07:45:04.048Z,3.80
2023-03-29T07:50:27.272Z,7.93
2023-03-29T07:55:50.029Z,6.43
2023-03-29T08:01:17.997Z,5.13
2023-03-29T08:06:41.209Z,3.78
2023-03-29T08:12:02.981Z,5.10
2023-03-29T08:17:24.742Z,2.65
2023-03-29T08:22:46.568Z,2.20
2023-03-29T08:28:08.577Z,7.50
2023-03-29T08:33:30.253Z,6.25
2023-03-29T08:38:52.020Z,3.53
2023-03-29T08:44:32.757Z,1.95
2023-03-29T08:49:56.401Z,3.92
2023-03-29T08:55:29.405Z,2.88
2023-03-29T09:00:59.703Z,6.40
2023-03-29T09:06:21.971Z,3.50
2023-03-29T09:12:11.876Z,4.20
2023-03-29T09:17:41.697Z,2.17
2023-03-29T09:23:30.273Z,5.80
2023-03-29T09:29:06.134Z,3.08
2023-03-29T09:34:34.707Z,4.35
2023-03-29T09:39:57.586Z,6.63
2023-03-29T09:45:19.453Z,2.45
2023-03-29T09:50:46.445Z,4.18
2023-03-29T09:56:08.589Z,3.60
2023-03-29T10:01:39.815Z,2.92
2023-03-29T10:07:01.669Z,5.65
2023-03-29T10:12:23.394Z,3.92
2023-03-29T10:17:46.154Z,5.78
2023-03-29T10:23:17.214Z,3.92
2023-03-29T10:28:39.906Z,4.47
2023-03-29T10:34:04.958Z,4.20
2023-03-29T10:39:32.753Z,2.20
2023-03-29T10:44:59.470Z,6.10
2023-03-29T10:50:21.221Z,2.88
2023-03-29T10:55:49.157Z,3.70
2023-03-29T11:01:22.042Z,3.97
2023-03-29T11:06:53.797Z,4.00
2023-03-29T11:12:38.949Z,2.95
2023-03-29T11:18:25.131Z,4.72
2023-03-29T11:24:04.917Z,4.30
2023-03-29T11:29:38.476Z,4.82
2023-03-29T11:35:18.493Z,3.28
2023-03-29T11:40:55.399Z,2.63
2023-03-29T11:46:23.607Z,2.67
2023-03-29T11:51:54.281Z,3.47
2023-03-29T11:57:39.868Z,2.65
2023-03-29T12:03:19.703Z,3.80
2023-03-29T12:08:48.263Z,4.00
2023-03-29T12:14:46.839Z,2.40
2023-03-29T12:20:28.274Z,5.72
2023-03-29T12:26:03.664Z,3.60
2023-03-29T12:31:47.869Z,2.80
2023-03-29T12:37:21.999Z,2.65
2023-03-29T12:42:59.688Z,3.78
2023-03-29T12:48:28.478Z,7.30
2023-03-29T12:54:00.457Z,2.20
2023-03-29T12:59:52.266Z,4.25
2023-03-29T13:05:29.549Z,7.63
2023-03-29T13:10:56.234Z,8.75
2023-03-29T13:16:21.774Z,6.07
2023-03-29T13:22:04.676Z,3.00
2023-03-29T13:27:56.189Z,2.00
2023-03-29T13:34:09.759Z,6.53
2023-03-29T13:39:36.773Z,2.17
2023-03-29T13:45:26.172Z,1.52
2023-03-29T13:50:55.583Z,4.00
2023-03-29T13:56:24.683Z,2.90
2023-03-29T14:01:57.826Z,4.35
2023-03-29T14:07:26.143Z,4.90
2023-03-29T14:12:48.603Z,2.78
2023-03-29T14:18:12.525Z,2.85
2023-03-29T14:23:37.108Z,3.25
2023-03-29T14:29:02.587Z,3.88
2023-03-29T14:34:24.342Z,2.75
2023-03-29T14:39:46.255Z,3.10
2023-03-29T14:45:14.108Z,5.00
2023-03-29T14:50:36.435Z,6.35
2023-03-29T14:55:58.603Z,6.10
2023-03-29T15:01:23.480Z,3.70
2023-03-29T15:06:46.895Z,3.60
2023-03-29T15:12:16.098Z,2.75
2023-03-29T15:17:50.521Z,6.72
2023-03-29T15:23:16.750Z,3.80
2023-03-29T15:28:48.180Z,3.90
2023-03-29T15:34:12.978Z,5.95
2023-03-29T15:39:35.130Z,5.45
2023-03-29T15:44:56.841Z,5.70
2023-03-29T15:50:18.857Z,4.43
2023-03-29T15:55:44.580Z,3.55
2023-03-29T16:01:11.980Z,2.95
2023-03-29T16:06:34.673Z,3.35
2023-03-29T16:11:56.473Z,5.65
2023-03-29T16:17:18.220Z,3.72
2023-03-29T16:22:39.924Z,5.30
2023-03-29T16:28:01.594Z,8.05
2023-03-29T16:33:23.326Z,3.72
2023-03-29T16:38:45.110Z,4.80
2023-03-29T16:44:07.339Z,8.93
2023-03-29T16:49:29.079Z,8.40
2023-03-29T16:54:50.772Z,5.18
2023-03-29T17:00:15.779Z,7.78
2023-03-29T17:05:41.267Z,4.95
2023-03-29T17:11:03.820Z,4.22
2023-03-29T17:16:28.405Z,6.28
2023-03-29T17:21:51.252Z,6.57
2023-03-29T17:27:13.005Z,2.92
2023-03-29T17:32:35.678Z,7.25
2023-03-29T17:38:01.316Z,8.43
2023-03-29T17:43:23.237Z,8.48
2023-03-29T17:48:46.226Z,8.07
2023-03-29T17:54:08.148Z,6.60
2023-03-29T17:59:29.885Z,4.35
2023-03-29T18:04:51.723Z,6.85
2023-03-29T18:10:13.448Z,6.05
2023-03-29T18:15:35.360Z,7.15
2023-03-29T18:20:57.067Z,5.68
2023-03-29T18:26:19.048Z,8.57
2023-03-29T18:31:40.990Z,5.82
2023-03-29T18:37:02.936Z,6.88
2023-03-29T18:42:24.975Z,6.85
2023-03-29T18:47:46.850Z,5.38
2023-03-29T18:53:10.845Z,4.88
2023-03-29T18:58:32.643Z,8.18
2023-03-29T19:03:54.420Z,8.10
2023-03-29T19:09:16.219Z,8.70
2023-03-29T19:14:38.002Z,8.65
2023-03-29T19:19:59.821Z,8.23
2023-03-29T19:25:21.612Z,19.98
2023-03-29T19:30:43.540Z,5.15
2023-03-29T19:36:05.812Z,7.13
2023-03-29T19:41:28.246Z,6.32
2023-03-29T19:46:51.202Z,9.35
2023-03-29T19:52:14.074Z,8.05
2023-03-29T19:57:35.876Z,10.02
2023-03-29T20:02:57.694Z,7.45
2023-03-29T20:08:19.812Z,8.60
2023-03-29T20:13:42.897Z,6.18
2023-03-29T20:19:06.907Z,8.63
2023-03-29T20:24:29.056Z,8.75
2023-03-29T20:29:50.837Z,14.73
2023-03-29T20:35:12.660Z,14.68
2023-03-29T20:40:34.554Z,11.25
2023-03-29T20:45:56.298Z,10.38
2023-03-29T20:51:18.096Z,7.50
2023-03-29T20:56:42.244Z,10.98
2023-03-29T21:02:04.518Z,7.60
2023-03-29T21:07:26.488Z,12.45
2023-03-29T21:12:48.422Z,7.28
2023-03-29T21:18:10.154Z,8.98
2023-03-29T21:23:32.054Z,13.10
2023-03-29T21:28:53.881Z,14.73
2023-03-29T21:34:15.790Z,12.27
2023-03-29T21:39:37.496Z,16.65
2023-03-29T21:44:59.208Z,11.88
2023-03-29T21:50:20.955Z,12.25
2023-03-29T21:55:42.656Z,18.48
2023-03-29T22:01:07.144Z,10.60
2023-03-29T22:06:29.018Z,10.23
2023-03-29T22:11:51.764Z,18.02
2023-03-29T22:17:13.454Z,14.18
2023-03-29T22:22:35.185Z,11.13
2023-03-29T22:27:56.878Z,16.10
2023-03-29T22:33:18.547Z,7.95
2023-03-29T22:38:40.442Z,7.47
2023-03-29T22:44:02.247Z,9.23
2023-03-29T22:49:24.053Z,7.68
2023-03-29T22:54:45.728Z,11.90
2023-03-29T23:00:09.147Z,15.60
2023-03-29T23:05:31.153Z,7.95
2023-03-29T23:10:52.998Z,8.30
2023-03-29T23:16:15.426Z,13.85
2023-03-29T23:21:37.216Z,9.07
2023-03-29T23:26:59.210Z,13.35
2023-03-29T23:32:21.049Z,11.30
2023-03-29T23:37:43.342Z,15.90
2023-03-29T23:43:05.094Z,14.38
2023-03-29T23:48:27.153Z,15.25
2023-03-29T23:53:49.498Z,9.90
2023-03-29T23:59:11.222Z,11.77
